Paint Mill Lake, Indiana
Current Conditions -  °F | °C
As of 5:37 AM on Friday 24 Oct 2014 (Local Time) from KHUF Reporting Station
Overcast Overcast  
Wind Chill: 47°   Ceiling: 2400
Heat Index: 47°   Visibility: 9mi
Dew Point: 44°   Wind: 0mph
Humidity: 90%   Direction: NA
Pressure: 30.1"   Gusts: NA
Location:  39.3587°N, 87.4056°W
Report Text: KHUF 240937Z 00000KT 9SM BKN024 OVC028 08/07 A3010 RMK AO2 T00830067
Loading
Personal Weather Stations






























Interactive Weather Map New forecast layout! Learn more

10-Day Weather Forecast

Advertisements
Track Severe Weather on mobile